sensor_id;sensor_type;location;lat;lon;timestamp;P1;durP1;ratioP1;P2;durP2;ratioP2
76939;SDS011;65885;55.848;35.916;2023-05-24T00:00:04;11.38;;;9.10;;
76939;SDS011;65885;55.848;35.916;2023-05-24T00:02:37;11.43;;;9.60;;
76939;SDS011;65885;55.848;35.916;2023-05-24T00:05:06;11.07;;;8.88;;
76939;SDS011;65885;55.848;35.916;2023-05-24T00:07:36;10.10;;;8.07;;
76939;SDS011;65885;55.848;35.916;2023-05-24T00:10:04;11.95;;;8.73;;
76939;SDS011;65885;55.848;35.916;2023-05-24T00:12:32;11.00;;;9.35;;
76939;SDS011;65885;55.848;35.916;2023-05-24T00:14:59;11.70;;;9.38;;
76939;SDS011;65885;55.848;35.916;2023-05-24T00:17:29;13.20;;;10.27;;
76939;SDS011;65885;55.848;35.916;2023-05-24T00:19:58;12.18;;;10.75;;
76939;SDS011;65885;55.848;35.916;2023-05-24T00:22:26;13.05;;;9.77;;
76939;SDS011;65885;55.848;35.916;2023-05-24T00:24:55;10.90;;;9.70;;
76939;SDS011;65885;55.848;35.916;2023-05-24T00:27:22;12.60;;;10.55;;
76939;SDS011;65885;55.848;35.916;2023-05-24T00:29:49;11.85;;;9.35;;
76939;SDS011;65885;55.848;35.916;2023-05-24T00:32:16;12.35;;;9.30;;
76939;SDS011;65885;55.848;35.916;2023-05-24T00:34:43;13.85;;;11.32;;
76939;SDS011;65885;55.848;35.916;2023-05-24T00:37:11;17.10;;;13.18;;
76939;SDS011;65885;55.848;35.916;2023-05-24T00:39:39;13.73;;;12.23;;
76939;SDS011;65885;55.848;35.916;2023-05-24T00:42:08;12.68;;;9.60;;
76939;SDS011;65885;55.848;35.916;2023-05-24T00:44:35;11.10;;;9.13;;
76939;SDS011;65885;55.848;35.916;2023-05-24T00:47:02;12.65;;;9.57;;
76939;SDS011;65885;55.848;35.916;2023-05-24T00:49:30;12.60;;;10.52;;
76939;SDS011;65885;55.848;35.916;2023-05-24T00:51:58;14.48;;;10.10;;
76939;SDS011;65885;55.848;35.916;2023-05-24T00:54:26;11.98;;;9.00;;
76939;SDS011;65885;55.848;35.916;2023-05-24T00:56:54;12.38;;;9.63;;
76939;SDS011;65885;55.848;35.916;2023-05-24T00:59:23;10.20;;;8.27;;
76939;SDS011;65885;55.848;35.916;2023-05-24T01:01:51;12.00;;;9.80;;
76939;SDS011;65885;55.848;35.916;2023-05-24T01:04:19;11.15;;;8.32;;
76939;SDS011;65885;55.848;35.916;2023-05-24T01:06:50;9.40;;;7.85;;
76939;SDS011;65885;55.848;35.916;2023-05-24T01:09:31;11.32;;;7.65;;
76939;SDS011;65885;55.848;35.916;2023-05-24T01:12:06;10.73;;;8.40;;
76939;SDS011;65885;55.848;35.916;2023-05-24T01:14:47;12.77;;;9.73;;
76939;SDS011;65885;55.848;35.916;2023-05-24T01:20:02;12.23;;;9.30;;
76939;SDS011;65885;55.848;35.916;2023-05-24T01:25:40;11.50;;;8.43;;
76939;SDS011;65885;55.848;35.916;2023-05-24T01:28:15;11.02;;;9.43;;
76939;SDS011;65885;55.848;35.916;2023-05-24T01:30:43;10.95;;;7.57;;
76939;SDS011;65885;55.848;35.916;2023-05-24T01:33:11;12.57;;;9.07;;
76939;SDS011;65885;55.848;35.916;2023-05-24T01:35:38;10.07;;;7.82;;
76939;SDS011;65885;55.848;35.916;2023-05-24T01:38:07;9.90;;;7.75;;
76939;SDS011;65885;55.848;35.916;2023-05-24T01:40:35;12.32;;;8.63;;
76939;SDS011;65885;55.848;35.916;2023-05-24T01:43:06;12.27;;;9.60;;
76939;SDS011;65885;55.848;35.916;2023-05-24T01:45:47;12.00;;;8.75;;
76939;SDS011;65885;55.848;35.916;2023-05-24T01:48:25;13.27;;;9.70;;
76939;SDS011;65885;55.848;35.916;2023-05-24T01:51:01;12.48;;;8.00;;
76939;SDS011;65885;55.848;35.916;2023-05-24T01:53:33;12.68;;;9.57;;
76939;SDS011;65885;55.848;35.916;2023-05-24T01:56:05;10.90;;;7.78;;
76939;SDS011;65885;55.848;35.916;2023-05-24T01:58:34;10.23;;;8.88;;
76939;SDS011;65885;55.848;35.916;2023-05-24T02:01:04;11.82;;;8.60;;
76939;SDS011;65885;55.848;35.916;2023-05-24T02:03:32;11.23;;;9.07;;
76939;SDS011;65885;55.848;35.916;2023-05-24T02:06:02;12.90;;;9.18;;
76939;SDS011;65885;55.848;35.916;2023-05-24T02:08:30;10.77;;;8.18;;
76939;SDS011;65885;55.848;35.916;2023-05-24T02:10:57;12.48;;;9.10;;
76939;SDS011;65885;55.848;35.916;2023-05-24T02:13:24;13.13;;;9.73;;
76939;SDS011;65885;55.848;35.916;2023-05-24T02:15:53;12.13;;;9.05;;
76939;SDS011;65885;55.848;35.916;2023-05-24T02:18:20;9.90;;;8.43;;
76939;SDS011;65885;55.848;35.916;2023-05-24T02:20:48;12.07;;;8.50;;
76939;SDS011;65885;55.848;35.916;2023-05-24T02:23:15;10.70;;;8.02;;
76939;SDS011;65885;55.848;35.916;2023-05-24T02:25:42;9.45;;;7.55;;
76939;SDS011;65885;55.848;35.916;2023-05-24T02:28:10;9.82;;;7.47;;
76939;SDS011;65885;55.848;35.916;2023-05-24T02:30:38;12.05;;;9.15;;
76939;SDS011;65885;55.848;35.916;2023-05-24T02:33:10;8.63;;;7.30;;
76939;SDS011;65885;55.848;35.916;2023-05-24T02:35:37;11.13;;;8.52;;
76939;SDS011;65885;55.848;35.916;2023-05-24T02:38:05;11.50;;;7.75;;
76939;SDS011;65885;55.848;35.916;2023-05-24T02:40:33;12.02;;;8.73;;
76939;SDS011;65885;55.848;35.916;2023-05-24T02:43:01;10.02;;;7.88;;
76939;SDS011;65885;55.848;35.916;2023-05-24T02:45:29;10.65;;;8.15;;
76939;SDS011;65885;55.848;35.916;2023-05-24T02:47:56;10.77;;;8.23;;
76939;SDS011;65885;55.848;35.916;2023-05-24T02:50:24;9.05;;;7.75;;
76939;SDS011;65885;55.848;35.916;2023-05-24T02:52:52;9.90;;;7.68;;
76939;SDS011;65885;55.848;35.916;2023-05-24T02:55:19;11.05;;;7.90;;
76939;SDS011;65885;55.848;35.916;2023-05-24T02:57:47;11.02;;;9.18;;
76939;SDS011;65885;55.848;35.916;2023-05-24T03:00:14;11.32;;;8.00;;
76939;SDS011;65885;55.848;35.916;2023-05-24T03:02:43;10.98;;;8.15;;
76939;SDS011;65885;55.848;35.916;2023-05-24T03:05:12;10.13;;;8.45;;
76939;SDS011;65885;55.848;35.916;2023-05-24T03:07:40;12.60;;;9.20;;
76939;SDS011;65885;55.848;35.916;2023-05-24T03:10:08;10.13;;;9.02;;
76939;SDS011;65885;55.848;35.916;2023-05-24T03:12:35;10.75;;;9.18;;
76939;SDS011;65885;55.848;35.916;2023-05-24T03:15:03;9.57;;;7.88;;
76939;SDS011;65885;55.848;35.916;2023-05-24T03:17:31;10.50;;;8.75;;
76939;SDS011;65885;55.848;35.916;2023-05-24T03:19:59;9.30;;;8.32;;
76939;SDS011;65885;55.848;35.916;2023-05-24T03:22:26;11.90;;;8.18;;
76939;SDS011;65885;55.848;35.916;2023-05-24T03:24:55;10.15;;;7.38;;
76939;SDS011;65885;55.848;35.916;2023-05-24T03:27:22;9.75;;;8.20;;
76939;SDS011;65885;55.848;35.916;2023-05-24T03:29:49;11.75;;;9.57;;
76939;SDS011;65885;55.848;35.916;2023-05-24T03:32:16;11.95;;;8.55;;
76939;SDS011;65885;55.848;35.916;2023-05-24T03:34:44;12.38;;;8.18;;
76939;SDS011;65885;55.848;35.916;2023-05-24T03:37:11;10.90;;;8.43;;
76939;SDS011;65885;55.848;35.916;2023-05-24T03:39:39;9.32;;;8.25;;
76939;SDS011;65885;55.848;35.916;2023-05-24T03:42:08;10.38;;;7.90;;
76939;SDS011;65885;55.848;35.916;2023-05-24T03:44:35;10.90;;;8.13;;
76939;SDS011;65885;55.848;35.916;2023-05-24T03:47:03;7.95;;;6.38;;
76939;SDS011;65885;55.848;35.916;2023-05-24T03:49:30;8.88;;;7.97;;
76939;SDS011;65885;55.848;35.916;2023-05-24T03:51:58;9.43;;;7.55;;
76939;SDS011;65885;55.848;35.916;2023-05-24T03:54:25;8.52;;;7.63;;
76939;SDS011;65885;55.848;35.916;2023-05-24T03:56:52;9.05;;;7.43;;
76939;SDS011;65885;55.848;35.916;2023-05-24T03:59:21;9.02;;;7.47;;
76939;SDS011;65885;55.848;35.916;2023-05-24T04:01:48;9.07;;;7.32;;
76939;SDS011;65885;55.848;35.916;2023-05-24T04:04:16;9.40;;;7.80;;
76939;SDS011;65885;55.848;35.916;2023-05-24T04:06:43;9.23;;;7.20;;
76939;SDS011;65885;55.848;35.916;2023-05-24T04:09:10;8.73;;;7.03;;
76939;SDS011;65885;55.848;35.916;2023-05-24T04:11:37;8.05;;;6.50;;
76939;SDS011;65885;55.848;35.916;2023-05-24T04:14:05;10.38;;;7.85;;
76939;SDS011;65885;55.848;35.916;2023-05-24T04:16:35;7.78;;;6.75;;
76939;SDS011;65885;55.848;35.916;2023-05-24T04:19:06;8.32;;;7.40;;
76939;SDS011;65885;55.848;35.916;2023-05-24T04:21:34;9.35;;;8.25;;
76939;SDS011;65885;55.848;35.916;2023-05-24T04:24:02;8.93;;;7.43;;
76939;SDS011;65885;55.848;35.916;2023-05-24T04:26:30;9.50;;;7.30;;
76939;SDS011;65885;55.848;35.916;2023-05-24T04:29:02;9.27;;;7.95;;
76939;SDS011;65885;55.848;35.916;2023-05-24T04:31:29;10.30;;;8.73;;
76939;SDS011;65885;55.848;35.916;2023-05-24T04:36:28;11.23;;;8.25;;
76939;SDS011;65885;55.848;35.916;2023-05-24T04:38:58;10.23;;;8.55;;
76939;SDS011;65885;55.848;35.916;2023-05-24T04:41:28;11.70;;;9.10;;
76939;SDS011;65885;55.848;35.916;2023-05-24T04:43:57;9.43;;;8.43;;
76939;SDS011;65885;55.848;35.916;2023-05-24T04:46:25;9.52;;;8.07;;
76939;SDS011;65885;55.848;35.916;2023-05-24T04:48:52;8.45;;;7.53;;
76939;SDS011;65885;55.848;35.916;2023-05-24T04:51:21;10.20;;;7.72;;
76939;SDS011;65885;55.848;35.916;2023-05-24T04:53:48;9.30;;;7.22;;
76939;SDS011;65885;55.848;35.916;2023-05-24T04:56:15;9.50;;;7.65;;
76939;SDS011;65885;55.848;35.916;2023-05-24T04:58:43;11.60;;;8.60;;
76939;SDS011;65885;55.848;35.916;2023-05-24T05:01:11;10.65;;;8.68;;
76939;SDS011;65885;55.848;35.916;2023-05-24T05:03:38;10.43;;;8.05;;
76939;SDS011;65885;55.848;35.916;2023-05-24T05:06:06;9.45;;;8.05;;
76939;SDS011;65885;55.848;35.916;2023-05-24T05:08:34;11.10;;;8.40;;
76939;SDS011;65885;55.848;35.916;2023-05-24T05:11:02;8.80;;;6.90;;
76939;SDS011;65885;55.848;35.916;2023-05-24T05:13:29;13.43;;;8.23;;
76939;SDS011;65885;55.848;35.916;2023-05-24T05:15:56;10.05;;;8.18;;
76939;SDS011;65885;55.848;35.916;2023-05-24T05:18:24;11.30;;;8.93;;
76939;SDS011;65885;55.848;35.916;2023-05-24T05:20:51;9.82;;;7.57;;
76939;SDS011;65885;55.848;35.916;2023-05-24T05:23:18;10.13;;;7.35;;
76939;SDS011;65885;55.848;35.916;2023-05-24T05:25:47;9.98;;;7.90;;
76939;SDS011;65885;55.848;35.916;2023-05-24T05:28:15;9.10;;;7.85;;
76939;SDS011;65885;55.848;35.916;2023-05-24T05:30:43;8.95;;;7.97;;
76939;SDS011;65885;55.848;35.916;2023-05-24T05:33:10;11.13;;;8.15;;
76939;SDS011;65885;55.848;35.916;2023-05-24T05:35:39;13.13;;;8.85;;
76939;SDS011;65885;55.848;35.916;2023-05-24T05:38:07;8.95;;;6.82;;
76939;SDS011;65885;55.848;35.916;2023-05-24T05:40:35;9.10;;;7.65;;
76939;SDS011;65885;55.848;35.916;2023-05-24T05:43:05;9.05;;;7.60;;
76939;SDS011;65885;55.848;35.916;2023-05-24T05:45:33;9.20;;;6.95;;
76939;SDS011;65885;55.848;35.916;2023-05-24T05:48:01;8.27;;;6.90;;
76939;SDS011;65885;55.848;35.916;2023-05-24T05:50:29;8.95;;;7.78;;
76939;SDS011;65885;55.848;35.916;2023-05-24T05:52:57;8.50;;;6.90;;
76939;SDS011;65885;55.848;35.916;2023-05-24T05:55:24;8.63;;;7.35;;
76939;SDS011;65885;55.848;35.916;2023-05-24T05:57:51;10.15;;;6.97;;
76939;SDS011;65885;55.848;35.916;2023-05-24T06:00:21;8.02;;;6.95;;
76939;SDS011;65885;55.848;35.916;2023-05-24T06:02:49;7.28;;;6.38;;
76939;SDS011;65885;55.848;35.916;2023-05-24T06:05:17;8.45;;;6.45;;
76939;SDS011;65885;55.848;35.916;2023-05-24T06:07:44;9.23;;;8.20;;
76939;SDS011;65885;55.848;35.916;2023-05-24T06:10:12;8.15;;;7.07;;
76939;SDS011;65885;55.848;35.916;2023-05-24T06:12:39;6.97;;;5.90;;
76939;SDS011;65885;55.848;35.916;2023-05-24T06:15:06;7.97;;;5.97;;
76939;SDS011;65885;55.848;35.916;2023-05-24T06:17:36;10.13;;;7.30;;
76939;SDS011;65885;55.848;35.916;2023-05-24T06:20:04;11.40;;;6.20;;
76939;SDS011;65885;55.848;35.916;2023-05-24T06:22:33;8.57;;;6.13;;
76939;SDS011;65885;55.848;35.916;2023-05-24T06:25:03;7.28;;;5.00;;
76939;SDS011;65885;55.848;35.916;2023-05-24T06:27:31;7.20;;;5.88;;
76939;SDS011;65885;55.848;35.916;2023-05-24T06:29:58;8.98;;;4.63;;
76939;SDS011;65885;55.848;35.916;2023-05-24T06:32:25;4.68;;;4.03;;
76939;SDS011;65885;55.848;35.916;2023-05-24T06:34:54;6.43;;;5.38;;
76939;SDS011;65885;55.848;35.916;2023-05-24T06:37:21;6.35;;;4.97;;
76939;SDS011;65885;55.848;35.916;2023-05-24T06:39:50;4.18;;;3.70;;
76939;SDS011;65885;55.848;35.916;2023-05-24T06:42:17;5.20;;;4.03;;
76939;SDS011;65885;55.848;35.916;2023-05-24T06:44:44;5.38;;;3.72;;
76939;SDS011;65885;55.848;35.916;2023-05-24T06:47:12;5.15;;;4.32;;
76939;SDS011;65885;55.848;35.916;2023-05-24T06:49:39;7.20;;;4.72;;
76939;SDS011;65885;55.848;35.916;2023-05-24T06:52:08;5.18;;;4.45;;
76939;SDS011;65885;55.848;35.916;2023-05-24T06:54:35;6.68;;;5.45;;
76939;SDS011;65885;55.848;35.916;2023-05-24T06:57:03;6.50;;;5.05;;
76939;SDS011;65885;55.848;35.916;2023-05-24T06:59:30;5.97;;;5.38;;
76939;SDS011;65885;55.848;35.916;2023-05-24T07:01:58;6.40;;;5.32;;
76939;SDS011;65885;55.848;35.916;2023-05-24T07:04:25;6.40;;;5.55;;
76939;SDS011;65885;55.848;35.916;2023-05-24T07:06:53;7.72;;;5.22;;
76939;SDS011;65885;55.848;35.916;2023-05-24T07:09:22;7.97;;;5.38;;
76939;SDS011;65885;55.848;35.916;2023-05-24T07:11:51;5.97;;;5.22;;
76939;SDS011;65885;55.848;35.916;2023-05-24T07:14:18;6.40;;;4.60;;
76939;SDS011;65885;55.848;35.916;2023-05-24T07:16:47;5.28;;;4.10;;
76939;SDS011;65885;55.848;35.916;2023-05-24T07:19:14;5.03;;;4.38;;
76939;SDS011;65885;55.848;35.916;2023-05-24T07:21:42;5.68;;;4.57;;
76939;SDS011;65885;55.848;35.916;2023-05-24T07:24:10;5.40;;;4.55;;
76939;SDS011;65885;55.848;35.916;2023-05-24T07:26:38;4.95;;;4.20;;
76939;SDS011;65885;55.848;35.916;2023-05-24T07:29:05;5.72;;;4.78;;
76939;SDS011;65885;55.848;35.916;2023-05-24T07:31:33;5.63;;;4.68;;
76939;SDS011;65885;55.848;35.916;2023-05-24T07:34:01;6.20;;;5.20;;
76939;SDS011;65885;55.848;35.916;2023-05-24T07:36:28;7.50;;;6.38;;
76939;SDS011;65885;55.848;35.916;2023-05-24T07:38:57;7.05;;;5.40;;
76939;SDS011;65885;55.848;35.916;2023-05-24T07:41:25;6.28;;;4.95;;
76939;SDS011;65885;55.848;35.916;2023-05-24T07:43:55;7.72;;;6.47;;
76939;SDS011;65885;55.848;35.916;2023-05-24T07:46:22;70.72;;;63.15;;
76939;SDS011;65885;55.848;35.916;2023-05-24T07:48:49;235.25;;;211.93;;
76939;SDS011;65885;55.848;35.916;2023-05-24T07:51:17;99.18;;;88.95;;
76939;SDS011;65885;55.848;35.916;2023-05-24T07:53:45;48.22;;;40.63;;
76939;SDS011;65885;55.848;35.916;2023-05-24T07:56:12;27.13;;;24.23;;
76939;SDS011;65885;55.848;35.916;2023-05-24T07:58:39;30.25;;;27.15;;
76939;SDS011;65885;55.848;35.916;2023-05-24T08:01:09;27.13;;;24.13;;
76939;SDS011;65885;55.848;35.916;2023-05-24T08:03:37;17.98;;;15.57;;
76939;SDS011;65885;55.848;35.916;2023-05-24T08:06:05;34.35;;;30.88;;
76939;SDS011;65885;55.848;35.916;2023-05-24T08:08:32;31.20;;;27.75;;
76939;SDS011;65885;55.848;35.916;2023-05-24T08:10:59;14.70;;;13.20;;
76939;SDS011;65885;55.848;35.916;2023-05-24T08:13:27;18.88;;;15.98;;
76939;SDS011;65885;55.848;35.916;2023-05-24T08:15:54;11.43;;;10.05;;
76939;SDS011;65885;55.848;35.916;2023-05-24T08:18:24;10.75;;;9.38;;
76939;SDS011;65885;55.848;35.916;2023-05-24T08:20:51;12.70;;;9.98;;
76939;SDS011;65885;55.848;35.916;2023-05-24T08:23:18;8.73;;;7.68;;
76939;SDS011;65885;55.848;35.916;2023-05-24T08:25:46;8.75;;;7.80;;
76939;SDS011;65885;55.848;35.916;2023-05-24T08:28:14;10.52;;;7.25;;
76939;SDS011;65885;55.848;35.916;2023-05-24T08:30:41;10.60;;;6.97;;
76939;SDS011;65885;55.848;35.916;2023-05-24T08:33:08;8.35;;;6.72;;
76939;SDS011;65885;55.848;35.916;2023-05-24T08:35:37;9.02;;;6.63;;
76939;SDS011;65885;55.848;35.916;2023-05-24T08:38:05;8.30;;;6.43;;
76939;SDS011;65885;55.848;35.916;2023-05-24T08:40:33;6.90;;;5.63;;
76939;SDS011;65885;55.848;35.916;2023-05-24T08:43:00;7.88;;;5.68;;
76939;SDS011;65885;55.848;35.916;2023-05-24T08:45:28;7.60;;;5.80;;
76939;SDS011;65885;55.848;35.916;2023-05-24T08:47:56;8.48;;;6.65;;
76939;SDS011;65885;55.848;35.916;2023-05-24T08:50:26;7.20;;;6.20;;
76939;SDS011;65885;55.848;35.916;2023-05-24T08:52:56;8.10;;;6.00;;
76939;SDS011;65885;55.848;35.916;2023-05-24T08:55:26;7.57;;;6.32;;
76939;SDS011;65885;55.848;35.916;2023-05-24T08:57:54;8.57;;;6.50;;
76939;SDS011;65885;55.848;35.916;2023-05-24T09:00:22;8.27;;;6.57;;
76939;SDS011;65885;55.848;35.916;2023-05-24T09:02:49;8.60;;;5.97;;
76939;SDS011;65885;55.848;35.916;2023-05-24T09:05:17;6.53;;;5.30;;
76939;SDS011;65885;55.848;35.916;2023-05-24T09:07:47;7.60;;;5.97;;
76939;SDS011;65885;55.848;35.916;2023-05-24T09:10:18;8.57;;;7.03;;
76939;SDS011;65885;55.848;35.916;2023-05-24T09:12:47;6.88;;;5.18;;
76939;SDS011;65885;55.848;35.916;2023-05-24T09:15:20;8.90;;;6.38;;
76939;SDS011;65885;55.848;35.916;2023-05-24T09:17:47;7.57;;;6.45;;
76939;SDS011;65885;55.848;35.916;2023-05-24T09:20:14;9.00;;;7.57;;
76939;SDS011;65885;55.848;35.916;2023-05-24T09:22:42;9.73;;;6.53;;
76939;SDS011;65885;55.848;35.916;2023-05-24T09:25:14;8.82;;;6.85;;
76939;SDS011;65885;55.848;35.916;2023-05-24T09:27:45;7.93;;;6.03;;
76939;SDS011;65885;55.848;35.916;2023-05-24T09:30:15;9.00;;;7.15;;
76939;SDS011;65885;55.848;35.916;2023-05-24T09:32:52;8.95;;;6.60;;
76939;SDS011;65885;55.848;35.916;2023-05-24T09:35:22;8.65;;;6.47;;
76939;SDS011;65885;55.848;35.916;2023-05-24T09:37:52;6.55;;;5.60;;
76939;SDS011;65885;55.848;35.916;2023-05-24T09:40:21;7.70;;;6.30;;
76939;SDS011;65885;55.848;35.916;2023-05-24T09:43:02;9.07;;;7.50;;
76939;SDS011;65885;55.848;35.916;2023-05-24T09:45:31;10.27;;;7.35;;
76939;SDS011;65885;55.848;35.916;2023-05-24T09:47:58;7.40;;;6.13;;
76939;SDS011;65885;55.848;35.916;2023-05-24T09:50:29;8.02;;;5.70;;
76939;SDS011;65885;55.848;35.916;2023-05-24T09:52:56;7.15;;;5.57;;
76939;SDS011;65885;55.848;35.916;2023-05-24T09:55:24;8.82;;;6.80;;
76939;SDS011;65885;55.848;35.916;2023-05-24T09:58:02;8.48;;;6.32;;
76939;SDS011;65885;55.848;35.916;2023-05-24T10:00:32;7.30;;;6.00;;
76939;SDS011;65885;55.848;35.916;2023-05-24T10:03:01;7.38;;;6.30;;
76939;SDS011;65885;55.848;35.916;2023-05-24T10:05:30;7.90;;;5.90;;
76939;SDS011;65885;55.848;35.916;2023-05-24T10:07:58;8.07;;;6.88;;
76939;SDS011;65885;55.848;35.916;2023-05-24T10:10:26;8.45;;;6.68;;
76939;SDS011;65885;55.848;35.916;2023-05-24T10:12:55;7.35;;;6.25;;
76939;SDS011;65885;55.848;35.916;2023-05-24T10:15:25;8.25;;;6.15;;
76939;SDS011;65885;55.848;35.916;2023-05-24T10:17:53;9.20;;;5.82;;
76939;SDS011;65885;55.848;35.916;2023-05-24T10:20:22;7.93;;;6.22;;
76939;SDS011;65885;55.848;35.916;2023-05-24T10:22:50;7.60;;;6.53;;
76939;SDS011;65885;55.848;35.916;2023-05-24T10:25:19;7.53;;;6.50;;
76939;SDS011;65885;55.848;35.916;2023-05-24T10:30:19;8.68;;;6.55;;
76939;SDS011;65885;55.848;35.916;2023-05-24T10:32:54;7.53;;;6.72;;
76939;SDS011;65885;55.848;35.916;2023-05-24T10:35:22;7.68;;;6.55;;
76939;SDS011;65885;55.848;35.916;2023-05-24T10:37:51;6.57;;;5.88;;
76939;SDS011;65885;55.848;35.916;2023-05-24T10:40:20;8.57;;;6.85;;
76939;SDS011;65885;55.848;35.916;2023-05-24T10:42:49;8.85;;;6.03;;
76939;SDS011;65885;55.848;35.916;2023-05-24T10:45:31;7.25;;;5.72;;
76939;SDS011;65885;55.848;35.916;2023-05-24T10:48:02;8.68;;;6.15;;
76939;SDS011;65885;55.848;35.916;2023-05-24T10:50:35;6.68;;;5.40;;
76939;SDS011;65885;55.848;35.916;2023-05-24T10:53:12;8.07;;;5.82;;
76939;SDS011;65885;55.848;35.916;2023-05-24T10:55:52;7.13;;;5.85;;
76939;SDS011;65885;55.848;35.916;2023-05-24T10:58:21;5.13;;;4.63;;
76939;SDS011;65885;55.848;35.916;2023-05-24T11:00:54;6.50;;;5.50;;
76939;SDS011;65885;55.848;35.916;2023-05-24T11:03:23;7.28;;;5.50;;
76939;SDS011;65885;55.848;35.916;2023-05-24T11:05:52;6.53;;;5.53;;
76939;SDS011;65885;55.848;35.916;2023-05-24T11:08:24;5.72;;;5.22;;
76939;SDS011;65885;55.848;35.916;2023-05-24T11:11:02;7.05;;;5.95;;
76939;SDS011;65885;55.848;35.916;2023-05-24T11:13:34;8.50;;;5.63;;
76939;SDS011;65885;55.848;35.916;2023-05-24T11:16:03;6.35;;;5.57;;
76939;SDS011;65885;55.848;35.916;2023-05-24T11:18:32;5.35;;;4.85;;
76939;SDS011;65885;55.848;35.916;2023-05-24T11:21:03;5.85;;;4.82;;
76939;SDS011;65885;55.848;35.916;2023-05-24T11:23:30;5.25;;;4.63;;
76939;SDS011;65885;55.848;35.916;2023-05-24T11:25:58;4.80;;;4.30;;
76939;SDS011;65885;55.848;35.916;2023-05-24T11:28:26;6.22;;;5.22;;
76939;SDS011;65885;55.848;35.916;2023-05-24T11:30:55;5.70;;;5.20;;
76939;SDS011;65885;55.848;35.916;2023-05-24T11:33:24;5.75;;;4.78;;
76939;SDS011;65885;55.848;35.916;2023-05-24T11:35:54;4.93;;;4.43;;
76939;SDS011;65885;55.848;35.916;2023-05-24T11:38:22;6.43;;;3.88;;
76939;SDS011;65885;55.848;35.916;2023-05-24T11:40:51;4.70;;;3.97;;
76939;SDS011;65885;55.848;35.916;2023-05-24T11:43:19;3.83;;;3.42;;
76939;SDS011;65885;55.848;35.916;2023-05-24T11:45:47;3.42;;;3.13;;
76939;SDS011;65885;55.848;35.916;2023-05-24T11:48:15;5.07;;;4.10;;
76939;SDS011;65885;55.848;35.916;2023-05-24T11:50:45;3.83;;;2.97;;
76939;SDS011;65885;55.848;35.916;2023-05-24T11:53:16;4.88;;;3.35;;
76939;SDS011;65885;55.848;35.916;2023-05-24T11:58:13;3.72;;;3.30;;
76939;SDS011;65885;55.848;35.916;2023-05-24T12:00:49;4.75;;;3.13;;
76939;SDS011;65885;55.848;35.916;2023-05-24T12:03:17;5.55;;;3.58;;
76939;SDS011;65885;55.848;35.916;2023-05-24T12:06:14;4.95;;;3.78;;
76939;SDS011;65885;55.848;35.916;2023-05-24T12:08:43;4.85;;;3.88;;
76939;SDS011;65885;55.848;35.916;2023-05-24T12:11:11;4.28;;;3.80;;
76939;SDS011;65885;55.848;35.916;2023-05-24T12:13:39;4.28;;;3.58;;
76939;SDS011;65885;55.848;35.916;2023-05-24T12:16:09;6.75;;;4.10;;
76939;SDS011;65885;55.848;35.916;2023-05-24T12:18:39;5.93;;;4.03;;
76939;SDS011;65885;55.848;35.916;2023-05-24T12:21:07;4.35;;;3.45;;
76939;SDS011;65885;55.848;35.916;2023-05-24T12:23:37;4.70;;;4.05;;
76939;SDS011;65885;55.848;35.916;2023-05-24T12:26:07;5.13;;;3.60;;
76939;SDS011;65885;55.848;35.916;2023-05-24T12:28:34;4.20;;;3.80;;
76939;SDS011;65885;55.848;35.916;2023-05-24T12:31:03;4.35;;;3.95;;
76939;SDS011;65885;55.848;35.916;2023-05-24T12:33:32;4.20;;;3.70;;
76939;SDS011;65885;55.848;35.916;2023-05-24T12:36:00;5.93;;;4.32;;
76939;SDS011;65885;55.848;35.916;2023-05-24T12:38:29;4.72;;;4.13;;
76939;SDS011;65885;55.848;35.916;2023-05-24T12:40:58;6.32;;;3.70;;
76939;SDS011;65885;55.848;35.916;2023-05-24T12:43:28;5.63;;;3.92;;
76939;SDS011;65885;55.848;35.916;2023-05-24T12:45:55;4.45;;;3.50;;
76939;SDS011;65885;55.848;35.916;2023-05-24T12:48:24;4.43;;;3.75;;
76939;SDS011;65885;55.848;35.916;2023-05-24T12:50:51;4.20;;;3.80;;
76939;SDS011;65885;55.848;35.916;2023-05-24T12:53:18;3.55;;;2.90;;
76939;SDS011;65885;55.848;35.916;2023-05-24T12:55:48;4.43;;;3.60;;
76939;SDS011;65885;55.848;35.916;2023-05-24T12:58:20;4.88;;;3.05;;
76939;SDS011;65885;55.848;35.916;2023-05-24T13:00:50;3.60;;;3.13;;
76939;SDS011;65885;55.848;35.916;2023-05-24T13:03:18;4.05;;;3.50;;
76939;SDS011;65885;55.848;35.916;2023-05-24T13:05:47;4.35;;;3.40;;
76939;SDS011;65885;55.848;35.916;2023-05-24T13:08:15;5.03;;;3.63;;
76939;SDS011;65885;55.848;35.916;2023-05-24T13:10:42;5.55;;;4.28;;
76939;SDS011;65885;55.848;35.916;2023-05-24T13:13:09;5.55;;;4.10;;
76939;SDS011;65885;55.848;35.916;2023-05-24T13:15:37;5.72;;;4.60;;
76939;SDS011;65885;55.848;35.916;2023-05-24T13:18:07;4.60;;;4.10;;
76939;SDS011;65885;55.848;35.916;2023-05-24T13:20:34;5.13;;;4.63;;
76939;SDS011;65885;55.848;35.916;2023-05-24T13:23:02;5.78;;;5.18;;
76939;SDS011;65885;55.848;35.916;2023-05-24T13:25:29;4.32;;;3.65;;
76939;SDS011;65885;55.848;35.916;2023-05-24T13:27:56;6.35;;;4.82;;
76939;SDS011;65885;55.848;35.916;2023-05-24T13:30:24;5.57;;;4.28;;
76939;SDS011;65885;55.848;35.916;2023-05-24T13:32:53;5.88;;;5.03;;
76939;SDS011;65885;55.848;35.916;2023-05-24T13:35:22;4.95;;;4.35;;
76939;SDS011;65885;55.848;35.916;2023-05-24T13:37:49;6.20;;;5.25;;
76939;SDS011;65885;55.848;35.916;2023-05-24T13:40:19;5.07;;;4.35;;
76939;SDS011;65885;55.848;35.916;2023-05-24T13:42:46;7.60;;;6.60;;
76939;SDS011;65885;55.848;35.916;2023-05-24T13:45:13;6.20;;;5.05;;
76939;SDS011;65885;55.848;35.916;2023-05-24T13:47:41;5.32;;;4.82;;
76939;SDS011;65885;55.848;35.916;2023-05-24T13:50:09;5.65;;;4.70;;
76939;SDS011;65885;55.848;35.916;2023-05-24T13:52:38;8.60;;;5.50;;
76939;SDS011;65885;55.848;35.916;2023-05-24T13:55:05;5.43;;;4.60;;
76939;SDS011;65885;55.848;35.916;2023-05-24T13:57:33;5.78;;;5.03;;
76939;SDS011;65885;55.848;35.916;2023-05-24T14:00:02;6.50;;;5.05;;
76939;SDS011;65885;55.848;35.916;2023-05-24T14:02:30;5.72;;;5.03;;
76939;SDS011;65885;55.848;35.916;2023-05-24T14:04:58;5.72;;;4.63;;
76939;SDS011;65885;55.848;35.916;2023-05-24T14:07:25;5.97;;;5.38;;
76939;SDS011;65885;55.848;35.916;2023-05-24T14:09:54;6.50;;;5.47;;
76939;SDS011;65885;55.848;35.916;2023-05-24T14:12:21;5.68;;;5.13;;
76939;SDS011;65885;55.848;35.916;2023-05-24T14:14:49;5.45;;;4.95;;
76939;SDS011;65885;55.848;35.916;2023-05-24T14:17:16;5.82;;;5.20;;
76939;SDS011;65885;55.848;35.916;2023-05-24T14:19:43;5.88;;;5.30;;
76939;SDS011;65885;55.848;35.916;2023-05-24T14:22:11;6.03;;;5.43;;
76939;SDS011;65885;55.848;35.916;2023-05-24T14:24:38;5.25;;;4.70;;
76939;SDS011;65885;55.848;35.916;2023-05-24T14:27:07;6.03;;;5.53;;
76939;SDS011;65885;55.848;35.916;2023-05-24T14:29:34;6.20;;;4.80;;
76939;SDS011;65885;55.848;35.916;2023-05-24T14:32:01;5.65;;;4.90;;
76939;SDS011;65885;55.848;35.916;2023-05-24T14:34:29;6.25;;;5.20;;
76939;SDS011;65885;55.848;35.916;2023-05-24T14:36:56;5.95;;;5.32;;
76939;SDS011;65885;55.848;35.916;2023-05-24T14:39:24;5.00;;;4.30;;
76939;SDS011;65885;55.848;35.916;2023-05-24T14:41:52;5.95;;;5.13;;
76939;SDS011;65885;55.848;35.916;2023-05-24T14:44:21;6.05;;;4.88;;
76939;SDS011;65885;55.848;35.916;2023-05-24T14:46:48;6.07;;;4.85;;
76939;SDS011;65885;55.848;35.916;2023-05-24T14:49:16;6.72;;;4.72;;